El Quimilar, Argentina
Current Conditions -  °F | °C
As of 1:00 AM on Wednesday 26 Nov 2014 (Local Time) from SASJ Reporting Station
Overcast Overcast  
Wind Chill: 66°   Ceiling: 3000
Heat Index: 66°   Visibility: 6mi
Dew Point: 64°   Wind: 6mph
Humidity: 94%   Direction: 320°NW
Pressure: 29.94"   Gusts: NA
Location:  23.33°S, 64.07°W
Report Text: SASJ 260400Z 32005KT 9999 SCT015 OVC03019/18 Q1014
Loading
Personal Weather Stations






























Interactive Weather Map New forecast layout! Learn more

10-Day Weather Forecast

Advertisements
Track Severe Weather on mobile